Time;durP1;ratioP1;P1;durP2;ratioP2;P2;SDS_P1;SDS_P2;PMS_P1;PMS_P2;Temp;Humidity;BMP_temperature;BMP_pressure;BME280_temperature;BME280_humidity;BME280_pressure;Samples;Min_cycle;Max_cycle;Signal;HPM_P1;HPM_P2
2024/01/13 00:00:15;;;;;;;;;;;3.80;99.90;;;;;;5106804;28;20496;-70
2024/01/13 00:02:40;;;;;;;0.20;0.20;;;4.00;99.90;;;;;;5100951;28;19920;-70
2024/01/13 00:05:06;;;;;;;0.40;0.40;;;4.10;99.90;;;;;;5109544;28;20054;-70
2024/01/13 00:07:32;;;;;;;0.20;0.20;;;4.40;99.90;;;;;;5111175;28;20055;-71
2024/01/13 00:09:57;;;;;;;0.20;0.20;;;4.10;99.90;;;;;;5110438;28;20054;-70
2024/01/13 00:12:23;;;;;;;0.20;0.20;;;4.20;99.90;;;;;;5110064;28;20040;-71
2024/01/13 00:14:49;;;;;;;0.20;0.20;;;4.00;99.90;;;;;;5111193;28;20052;-71
2024/01/13 00:17:15;;;;;;;0.20;0.20;;;4.30;99.90;;;;;;5111224;28;20105;-70
2024/01/13 00:19:41;;;;;;;0.20;0.20;;;4.30;99.90;;;;;;5110652;28;20040;-70
2024/01/13 00:22:06;;;;;;;0.20;0.20;;;4.20;99.90;;;;;;5110916;28;20054;-70
2024/01/13 00:24:32;;;;;;;0.40;0.40;;;;;;;;;;5110837;28;21315;-70
2024/01/13 00:26:58;;;;;;;0.20;0.20;;;4.40;99.90;;;;;;5109522;28;20051;-71
2024/01/13 00:29:24;;;;;;;0.20;0.20;;;4.20;99.90;;;;;;5110737;28;20054;-71
2024/01/13 00:31:50;;;;;;;0.20;0.20;;;;;;;;;;5110589;28;20182;-71
2024/01/13 00:34:16;;;;;;;0.45;0.45;;;;;;;;;;5110446;28;20889;-70
2024/01/13 00:36:42;;;;;;;0.30;0.30;;;4.30;99.90;;;;;;5109953;28;20060;-70
2024/01/13 00:39:08;;;;;;;0.20;0.20;;;4.50;99.90;;;;;;5112346;28;20054;-70
2024/01/13 00:41:34;;;;;;;0.13;0.13;;;4.20;99.90;;;;;;5114829;28;20049;-70
2024/01/13 00:44:00;;;;;;;;;;;4.40;99.90;;;;;;5127261;27;20473;-71
2024/01/13 00:46:26;;;;;;;0.20;0.20;;;4.20;99.90;;;;;;5134056;27;20014;-70
2024/01/13 00:48:52;;;;;;;0.10;0.10;;;4.30;99.90;;;;;;5134839;27;20043;-70
2024/01/13 00:51:17;;;;;;;1.02;0.40;;;4.30;99.90;;;;;;5135296;27;20115;-70
2024/01/13 00:53:43;;;;;;;0.20;0.20;;;4.40;99.90;;;;;;5133687;27;20051;-69
2024/01/13 00:56:09;;;;;;;0.20;0.20;;;4.50;99.90;;;;;;5133833;27;20204;-70
2024/01/13 00:58:36;;;;;;;0.30;0.30;;;4.30;99.90;;;;;;5134324;27;20051;-69
2024/01/13 01:01:03;;;;;;;0.20;0.20;;;4.50;99.90;;;;;;5124078;27;20420;-70
2024/01/13 01:03:29;;;;;;;0.20;0.20;;;;;;;;;;5130997;27;20126;-70
2024/01/13 01:05:55;;;;;;;0.50;0.50;;;4.60;99.90;;;;;;5134613;27;20120;-70
2024/01/13 01:08:20;;;;;;;0.20;0.20;;;4.70;99.90;;;;;;5134673;27;20046;-70
2024/01/13 01:10:46;;;;;;;0.20;0.20;;;4.60;99.90;;;;;;5134065;27;20043;-70
2024/01/13 01:13:12;;;;;;;0.20;0.20;;;4.40;99.90;;;;;;5135011;27;20039;-70
2024/01/13 01:15:38;;;;;;;0.20;0.20;;;4.60;99.90;;;;;;5135158;27;20051;-70
2024/01/13 01:18:04;;;;;;;0.20;0.20;;;4.50;99.90;;;;;;5133372;27;20043;-70
2024/01/13 01:20:30;;;;;;;0.30;0.30;;;4.50;99.90;;;;;;5134979;27;20050;-70
2024/01/13 01:22:56;;;;;;;0.30;0.30;;;;;;;;;;5133384;27;20126;-70
2024/01/13 01:25:21;;;;;;;2.70;1.73;;;4.60;99.90;;;;;;5135023;27;20120;-71
2024/01/13 01:27:47;;;;;;;0.20;0.20;;;4.40;99.90;;;;;;5134633;27;20191;-70
2024/01/13 01:30:13;;;;;;;0.20;0.20;;;4.30;99.90;;;;;;5133517;27;20031;-70
2024/01/13 01:32:39;;;;;;;0.28;0.28;;;4.00;99.90;;;;;;5116219;27;20046;-70
2024/01/13 01:35:06;;;;;;;;;;;4.50;99.90;;;;;;5134152;27;20577;-71
2024/01/13 01:37:33;;;;;;;0.17;0.17;;;4.10;99.90;;;;;;5134536;27;19927;-70
2024/01/13 01:39:59;;;;;;;0.20;0.20;;;4.20;99.90;;;;;;5134564;27;20078;-70
2024/01/13 01:42:25;;;;;;;0.20;0.20;;;;;;;;;;5135310;27;20135;-70
2024/01/13 01:44:51;;;;;;;0.20;0.20;;;;;;;;;;5137254;27;20065;-70
2024/01/13 01:47:21;;;;;;;0.30;0.30;;;4.20;99.90;;;;;;5155337;27;20042;-71
2024/01/13 01:49:47;;;;;;;0.20;0.20;;;4.00;99.90;;;;;;5135978;27;20367;-70
2024/01/13 01:52:15;;;;;;;0.20;0.20;;;4.20;99.90;;;;;;5154962;27;20038;-70
2024/01/13 01:54:41;;;;;;;0.20;0.20;;;4.20;99.90;;;;;;5154905;27;20065;-71
2024/01/13 01:57:10;;;;;;;1.42;0.93;;;4.30;99.90;;;;;;5154567;27;20038;-71
2024/01/13 01:59:36;;;;;;;0.15;0.15;;;4.30;99.90;;;;;;5136345;27;20081;-70
2024/01/13 02:02:03;;;;;;;0.20;0.20;;;4.20;99.90;;;;;;5140665;27;20084;-70
2024/01/13 02:04:29;;;;;;;0.20;0.20;;;4.10;99.90;;;;;;5154308;27;20047;-70
2024/01/13 02:06:55;;;;;;;0.20;0.20;;;4.10;99.90;;;;;;5154046;27;20038;-70
2024/01/13 02:09:22;;;;;;;0.20;0.20;;;4.30;99.90;;;;;;5136358;27;20398;-70
2024/01/13 02:11:48;;;;;;;0.20;0.20;;;4.10;99.90;;;;;;5154422;27;20591;-70
2024/01/13 02:14:14;;;;;;;0.20;0.20;;;4.00;99.90;;;;;;5154695;27;20043;-70
2024/01/13 02:16:40;;;;;;;0.20;0.20;;;4.20;99.90;;;;;;5154125;27;20387;-70
2024/01/13 02:19:05;;;;;;;0.20;0.20;;;4.40;99.90;;;;;;5154273;27;20049;-71
2024/01/13 02:21:34;;;;;;;0.20;0.20;;;4.00;99.90;;;;;;5135826;27;20235;-71
2024/01/13 02:24:00;;;;;;;0.20;0.20;;;4.00;99.90;;;;;;5154495;27;20122;-70
2024/01/13 02:26:28;;;;;;;0.30;0.30;;;4.10;99.90;;;;;;5135715;27;20125;-70
2024/01/13 02:28:53;;;;;;;0.20;0.20;;;4.30;99.90;;;;;;5136098;27;20103;-70
2024/01/13 02:31:19;;;;;;;0.30;0.30;;;4.50;99.90;;;;;;5154108;27;20428;-70
2024/01/13 02:33:45;;;;;;;0.30;0.30;;;4.00;99.90;;;;;;5154318;27;20043;-70
2024/01/13 02:36:11;;;;;;;0.20;0.20;;;;;;;;;;5135498;27;20073;-70
2024/01/13 02:38:37;;;;;;;0.30;0.30;;;4.20;99.90;;;;;;5153976;27;20089;-70
2024/01/13 02:41:03;;;;;;;0.20;0.20;;;4.00;99.90;;;;;;5154253;27;20078;-70
2024/01/13 02:43:28;;;;;;;0.20;0.20;;;4.00;99.90;;;;;;5153741;27;20066;-70
2024/01/13 02:45:54;;;;;;;0.20;0.20;;;3.90;99.90;;;;;;5135391;27;20038;-70
2024/01/13 02:48:20;;;;;;;0.20;0.20;;;3.70;99.90;;;;;;5153946;27;20144;-69
2024/01/13 02:50:54;;;;;;;0.20;0.20;;;4.50;99.90;;;;;;5153584;27;20497;-69
2024/01/13 02:53:21;;;;;;;0.20;0.20;;;;;;;;;;5153757;27;20054;-70
2024/01/13 02:55:46;;;;;;;0.20;0.20;;;4.10;99.90;;;;;;5135357;27;20046;-70
2024/01/13 02:58:12;;;;;;;0.20;0.20;;;4.00;99.90;;;;;;5154021;27;20486;-71
2024/01/13 03:00:38;;;;;;;0.30;0.30;;;2.80;99.90;;;;;;5127529;27;20051;-70
2024/01/13 03:03:04;;;;;;;0.20;0.20;;;4.10;99.90;;;;;;5146899;27;20478;-69
2024/01/13 03:05:29;;;;;;;0.40;0.40;;;4.20;99.90;;;;;;5153575;27;20050;-70
2024/01/13 03:07:55;;;;;;;0.20;0.20;;;4.30;99.90;;;;;;5153445;27;20043;-70
2024/01/13 03:10:21;;;;;;;0.20;0.20;;;;;;;;;;5153285;27;20039;-70
2024/01/13 03:12:47;;;;;;;0.20;0.20;;;4.10;99.90;;;;;;5135345;27;20124;-70
2024/01/13 03:15:12;;;;;;;0.20;0.20;;;4.10;99.90;;;;;;5153241;27;20469;-70
2024/01/13 03:17:38;;;;;;;0.20;0.20;;;4.10;99.90;;;;;;5134965;27;20480;-70
2024/01/13 03:20:04;;;;;;;0.30;0.30;;;4.20;99.90;;;;;;5153562;27;20117;-69
2024/01/13 03:22:30;;;;;;;0.20;0.20;;;;;;;;;;5134404;27;20078;-71
2024/01/13 03:24:56;;;;;;;0.40;0.40;;;;;;;;;;5135004;27;20030;-70
2024/01/13 03:27:22;;;;;;;0.20;0.20;;;;;;;;;;5153177;27;20054;-71
2024/01/13 03:29:48;;;;;;;0.20;0.20;;;4.10;99.90;;;;;;5122049;27;20561;-69
2024/01/13 03:32:14;;;;;;;0.20;0.20;;;4.30;99.90;;;;;;5152482;27;20059;-71
2024/01/13 03:34:40;;;;;;;0.20;0.20;;;;;;;;;;5134603;27;20050;-70
2024/01/13 03:37:06;;;;;;;;;;;4.30;99.90;;;;;;5134990;27;20045;-70
2024/01/13 03:39:31;;;;;;;0.20;0.20;;;4.20;99.90;;;;;;5152949;27;19927;-69
2024/01/13 03:41:57;;;;;;;0.20;0.20;;;;;;;;;;5134148;27;20078;-71
2024/01/13 03:44:23;;;;;;;0.25;0.25;;;4.20;99.90;;;;;;5152887;27;20223;-69
2024/01/13 03:46:49;;;;;;;0.20;0.20;;;;;;;;;;5152812;27;20506;-71
2024/01/13 03:49:15;;;;;;;;;;;3.90;99.90;;;;;;5135013;27;20046;-70
2024/01/13 03:51:41;;;;;;;2.72;0.90;;;4.20;99.90;;;;;;5134432;27;19925;-71
2024/01/13 03:54:06;;;;;;;0.40;0.40;;;4.00;99.90;;;;;;5139701;27;20093;-70
2024/01/13 03:56:32;;;;;;;0.30;0.30;;;4.00;99.90;;;;;;5153157;27;20394;-70
2024/01/13 03:58:58;;;;;;;0.20;0.20;;;;;;;;;;5152801;27;20043;-70
2024/01/13 04:01:24;;;;;;;4.07;2.20;;;3.80;99.90;;;;;;5134183;27;20065;-70
2024/01/13 04:03:49;;;;;;;0.30;0.30;;;4.00;99.90;;;;;;5152468;27;20042;-70
2024/01/13 04:06:15;;;;;;;0.20;0.20;;;4.00;99.90;;;;;;5152636;27;20042;-70
2024/01/13 04:08:41;;;;;;;0.77;0.60;;;3.80;99.90;;;;;;5152636;27;20486;-69
2024/01/13 04:11:08;;;;;;;0.20;0.20;;;4.20;99.90;;;;;;5153129;27;20154;-69
2024/01/13 04:13:33;;;;;;;0.20;0.20;;;4.00;99.90;;;;;;5138077;27;20047;-69
2024/01/13 04:15:59;;;;;;;0.20;0.20;;;3.90;99.90;;;;;;5156820;27;20065;-70
2024/01/13 04:18:25;;;;;;;0.20;0.20;;;4.20;99.90;;;;;;5157133;27;20042;-69
2024/01/13 04:20:51;;;;;;;0.20;0.20;;;4.20;99.90;;;;;;5156921;27;20039;-71
2024/01/13 04:23:17;;;;;;;2.30;0.40;;;4.40;99.90;;;;;;5138252;27;20799;-70
2024/01/13 04:25:42;;;;;;;0.20;0.20;;;4.50;99.90;;;;;;5138576;27;20078;-71
2024/01/13 04:28:08;;;;;;;0.20;0.20;;;4.20;99.90;;;;;;5156579;27;20038;-69
2024/01/13 04:30:35;;;;;;;0.32;0.32;;;4.10;99.90;;;;;;5156724;27;20045;-69
2024/01/13 04:33:01;;;;;;;0.50;0.50;;;3.90;99.90;;;;;;5156498;27;20046;-69
2024/01/13 04:35:28;;;;;;;0.80;0.73;;;4.30;99.90;;;;;;5156637;27;20474;-70
2024/01/13 04:37:55;;;;;;;0.20;0.20;;;4.40;99.90;;;;;;5138446;27;20042;-69
2024/01/13 04:40:20;;;;;;;4.55;2.00;;;4.40;99.90;;;;;;5156601;27;20038;-69
2024/01/13 04:42:46;;;;;;;0.20;0.20;;;;;;;;;;5156389;27;20103;-70
2024/01/13 04:45:12;;;;;;;0.93;0.90;;;4.10;99.90;;;;;;5156428;27;20054;-70
2024/01/13 04:47:38;;;;;;;0.20;0.20;;;;;;;;;;5156491;27;20488;-70
2024/01/13 04:50:04;;;;;;;0.32;0.32;;;4.00;99.90;;;;;;5155871;27;20038;-69
2024/01/13 04:52:30;;;;;;;0.20;0.20;;;4.10;99.90;;;;;;5156345;27;20046;-69
2024/01/13 04:54:56;;;;;;;0.30;0.30;;;4.00;99.90;;;;;;5156152;27;20046;-70
2024/01/13 04:57:21;;;;;;;0.50;0.50;;;4.20;99.90;;;;;;5156730;27;20125;-70
2024/01/13 04:59:47;;;;;;;0.20;0.20;;;;;;;;;;5156092;27;20038;-71
2024/01/13 05:02:13;;;;;;;1.25;1.23;;;;;;;;;;5142404;27;20053;-70
2024/01/13 05:04:39;;;;;;;0.20;0.20;;;3.90;99.90;;;;;;5156537;27;20043;-70
2024/01/13 05:07:05;;;;;;;0.20;0.20;;;4.00;99.90;;;;;;5155979;27;20159;-70
2024/01/13 05:09:31;;;;;;;0.20;0.20;;;3.80;99.90;;;;;;5156089;27;20042;-70
2024/01/13 05:11:56;;;;;;;0.20;0.20;;;3.80;99.90;;;;;;5155222;27;20087;-70
2024/01/13 05:14:22;;;;;;;0.20;0.20;;;4.00;99.90;;;;;;5155928;27;20157;-70
2024/01/13 05:16:48;;;;;;;0.30;0.30;;;3.60;99.90;;;;;;5137021;27;20551;-70
2024/01/13 05:19:13;;;;;;;0.22;0.22;;;4.00;99.90;;;;;;5155836;27;20042;-70
2024/01/13 05:21:39;;;;;;;0.30;0.30;;;3.90;99.90;;;;;;5137163;27;20390;-70
2024/01/13 05:24:05;;;;;;;0.20;0.20;;;3.80;99.90;;;;;;5154886;27;20042;-71
2024/01/13 05:26:31;;;;;;;0.20;0.20;;;3.80;99.90;;;;;;5155465;27;20065;-70
2024/01/13 05:28:56;;;;;;;0.20;0.20;;;3.70;99.90;;;;;;5137391;27;20046;-70
2024/01/13 05:31:22;;;;;;;0.20;0.20;;;3.40;99.90;;;;;;5155532;27;20047;-70
2024/01/13 05:33:48;;;;;;;0.10;0.10;;;3.90;99.90;;;;;;5155524;27;20039;-70
2024/01/13 05:36:14;;;;;;;0.20;0.20;;;;;;;;;;5136661;27;20497;-70
2024/01/13 05:38:40;;;;;;;0.20;0.20;;;;;;;;;;5155200;27;20050;-71
2024/01/13 05:41:05;;;;;;;0.20;0.20;;;3.80;99.90;;;;;;5154465;27;20125;-70
2024/01/13 05:43:32;;;;;;;0.20;0.20;;;;;;;;;;5136533;27;20567;-70
2024/01/13 05:45:58;;;;;;;0.30;0.30;;;;;;;;;;5154035;27;20174;-70
2024/01/13 05:48:24;;;;;;;0.20;0.20;;;;;;;;;;5155026;27;20129;-70
2024/01/13 05:50:49;;;;;;;0.20;0.20;;;3.50;99.90;;;;;;5135657;27;20063;-70
2024/01/13 05:53:15;;;;;;;0.20;0.20;;;3.50;99.90;;;;;;5154939;27;20089;-70
2024/01/13 05:55:42;;;;;;;0.20;0.20;;;;;;;;;;5154902;27;20392;-70
2024/01/13 05:58:08;;;;;;;0.20;0.20;;;3.60;99.90;;;;;;5136291;27;20082;-70
2024/01/13 06:00:33;;;;;;;0.20;0.20;;;3.90;99.90;;;;;;5153904;27;20146;-70
2024/01/13 06:02:59;;;;;;;0.20;0.20;;;3.70;99.90;;;;;;5154489;27;20051;-70
2024/01/13 06:05:25;;;;;;;0.40;0.40;;;;;;;;;;5154679;27;20498;-70
2024/01/13 06:07:51;;;;;;;0.10;0.10;;;3.60;99.90;;;;;;5136297;27;20051;-70
2024/01/13 06:10:17;;;;;;;0.20;0.20;;;3.40;99.90;;;;;;5136224;27;20505;-70
2024/01/13 06:12:45;;;;;;;0.20;0.20;;;3.50;99.90;;;;;;5154461;27;20418;-70
2024/01/13 06:15:11;;;;;;;0.20;0.20;;;3.80;99.90;;;;;;5154285;27;20052;-70
2024/01/13 06:17:37;;;;;;;0.20;0.20;;;;;;;;;;5154614;27;20042;-70
2024/01/13 06:20:03;;;;;;;0.20;0.20;;;3.70;99.90;;;;;;5135482;27;20039;-70
2024/01/13 06:22:30;;;;;;;0.20;0.20;;;;;;;;;;5154089;27;20509;-70
2024/01/13 06:24:56;;;;;;;0.20;0.20;;;;;;;;;;5141163;27;20114;-70
2024/01/13 06:27:22;;;;;;;2.28;0.75;;;;;;;;;;5135879;27;20055;-71
2024/01/13 06:29:48;;;;;;;0.20;0.20;;;;;;;;;;5141229;27;20074;-69
2024/01/13 06:32:13;;;;;;;0.20;0.20;;;3.70;99.90;;;;;;5154169;27;20058;-70
2024/01/13 06:34:39;;;;;;;0.20;0.20;;;3.90;99.90;;;;;;5135900;27;20402;-70
2024/01/13 06:37:05;;;;;;;0.28;0.28;;;;;;;;;;5123021;27;20461;-70
2024/01/13 06:39:31;;;;;;;0.20;0.20;;;;;;;;;;5141028;27;20078;-70
2024/01/13 06:41:57;;;;;;;0.20;0.20;;;3.90;99.90;;;;;;5135322;27;20074;-70
2024/01/13 06:44:22;;;;;;;0.30;0.30;;;4.10;99.90;;;;;;5153385;27;20054;-70
2024/01/13 06:46:48;;;;;;;0.30;0.30;;;4.00;99.90;;;;;;5153840;27;20121;-69
2024/01/13 06:49:13;;;;;;;0.20;0.20;;;3.90;99.90;;;;;;5153909;27;20555;-70
2024/01/13 06:51:39;;;;;;;0.43;0.43;;;4.20;99.90;;;;;;5154124;27;20050;-70
2024/01/13 06:54:05;;;;;;;0.28;0.28;;;4.50;99.90;;;;;;5153653;27;20039;-69
2024/01/13 06:56:31;;;;;;;0.20;0.20;;;3.80;99.90;;;;;;5153721;27;20083;-70
2024/01/13 06:58:57;;;;;;;4.47;1.95;;;;;;;;;;5118221;27;20142;-70
2024/01/13 07:01:23;;;;;;;0.20;0.20;;;;;;;;;;5153712;27;20046;-70
2024/01/13 07:03:49;;;;;;;0.20;0.20;;;4.20;99.90;;;;;;5134917;27;20046;-69
2024/01/13 07:06:15;;;;;;;0.20;0.20;;;;;;;;;;5135466;27;20398;-70
2024/01/13 07:08:44;;;;;;;0.30;0.30;;;;;;;;;;5135055;27;20385;-70
2024/01/13 07:11:16;;;;;;;0.17;0.17;;;;;;;;;;5153389;27;20160;-68
2024/01/13 07:13:43;;;;;;;0.20;0.20;;;;;;;;;;5122330;27;20402;-69
2024/01/13 07:16:12;;;;;;;0.70;0.70;;;4.40;99.90;;;;;;5139283;27;20051;-71
2024/01/13 07:18:38;;;;;;;0.57;0.57;;;4.30;99.90;;;;;;5135549;27;20047;-70
2024/01/13 07:21:08;;;;;;;2.35;2.15;;;4.70;99.90;;;;;;5134248;27;20049;-69
2024/01/13 07:23:33;;;;;;;1.48;0.98;;;4.50;99.90;;;;;;5135132;27;20088;-70
2024/01/13 07:26:01;;;;;;;1.20;1.10;;;;;;;;;;5141780;27;20125;-70
2024/01/13 07:28:27;;;;;;;1.20;1.15;;;;;;;;;;5142392;27;20046;-71
2024/01/13 07:30:52;;;;;;;3.10;0.98;;;4.40;99.90;;;;;;5126390;27;20047;-70
2024/01/13 07:33:18;;;;;;;2.67;1.52;;;4.50;99.90;;;;;;5133536;27;20046;-70
2024/01/13 07:35:44;;;;;;;2.65;1.92;;;4.50;99.90;;;;;;5128617;27;20080;-70
2024/01/13 07:38:10;;;;;;;2.75;2.42;;;;;;;;;;5134513;27;20497;-70
2024/01/13 07:40:35;;;;;;;2.80;2.28;;;4.40;99.90;;;;;;5147732;27;20123;-69
2024/01/13 07:43:01;;;;;;;1.08;1.00;;;4.50;99.90;;;;;;5152823;27;20744;-69
2024/01/13 07:45:27;;;;;;;4.70;3.25;;;4.30;99.90;;;;;;5149551;27;20084;-68
2024/01/13 07:47:53;;;;;;;1.85;1.75;;;4.50;99.90;;;;;;5151815;27;20051;-69
2024/01/13 07:50:18;;;;;;;1.90;1.80;;;4.40;99.90;;;;;;5151709;27;20076;-69
2024/01/13 07:52:44;;;;;;;0.95;0.95;;;4.40;99.90;;;;;;5152885;27;20046;-70
2024/01/13 07:55:10;;;;;;;2.83;2.55;;;;;;;;;;5115236;27;20046;-71
2024/01/13 07:57:36;;;;;;;3.20;2.80;;;4.50;99.90;;;;;;5152439;27;20053;-71
2024/01/13 08:00:03;;;;;;;4.18;3.05;;;4.40;99.90;;;;;;5151486;27;20051;-71
2024/01/13 08:02:28;;;;;;;7.65;3.63;;;4.20;99.90;;;;;;5133777;27;20133;-69
2024/01/13 08:04:54;;;;;;;3.00;2.33;;;4.70;99.90;;;;;;5152280;27;20125;-69
2024/01/13 08:07:23;;;;;;;5.15;3.03;;;4.40;99.90;;;;;;5141350;27;20072;-70
2024/01/13 08:09:49;;;;;;;6.13;4.35;;;4.30;99.90;;;;;;5152047;27;20057;-69
2024/01/13 08:12:15;;;;;;;3.35;2.65;;;4.60;99.90;;;;;;5124324;27;20049;-70
2024/01/13 08:14:40;;;;;;;5.63;4.05;;;4.50;99.90;;;;;;5133798;27;20043;-70
2024/01/13 08:17:07;;;;;;;2.95;2.03;;;;;;;;;;5125706;27;20043;-71
2024/01/13 08:19:33;;;;;;;8.07;4.03;;;4.70;99.90;;;;;;5133288;27;20079;-69
2024/01/13 08:21:58;;;;;;;3.72;3.03;;;4.40;99.90;;;;;;5145493;27;20042;-70
2024/01/13 08:24:24;;;;;;;2.67;2.55;;;4.50;99.90;;;;;;5133858;27;20077;-70
2024/01/13 08:26:50;;;;;;;6.10;4.05;;;4.20;99.90;;;;;;5127449;27;20082;-70
2024/01/13 08:29:15;;;;;;;5.03;3.33;;;4.60;99.90;;;;;;5151958;27;20054;-70
2024/01/13 08:31:41;;;;;;;4.97;3.53;;;4.50;99.90;;;;;;5148775;27;20043;-71
2024/01/13 08:34:10;;;;;;;5.10;4.55;;;4.40;99.90;;;;;;5133080;27;20043;-70
2024/01/13 08:36:36;;;;;;;7.35;3.25;;;;;;;;;;5150267;27;20103;-71
2024/01/13 08:39:02;;;;;;;3.85;2.47;;;4.50;99.90;;;;;;5151492;27;20414;-70
2024/01/13 08:41:27;;;;;;;8.82;7.28;;;4.60;99.90;;;;;;5151498;27;20050;-71
2024/01/13 08:43:53;;;;;;;6.53;2.75;;;;;;;;;;5151910;27;20725;-70
2024/01/13 08:46:19;;;;;;;4.30;2.38;;;4.60;99.90;;;;;;5133770;27;20063;-69
2024/01/13 08:48:45;;;;;;;8.60;4.93;;;4.90;99.90;;;;;;5138572;27;20050;-70
2024/01/13 08:51:10;;;;;;;3.40;1.98;;;4.80;99.90;;;;;;5120548;27;20167;-72
2024/01/13 08:53:36;;;;;;;3.17;2.47;;;4.40;99.90;;;;;;5133124;27;20043;-72
2024/01/13 08:56:02;;;;;;;12.10;4.60;;;4.50;99.90;;;;;;5146478;27;20078;-72
2024/01/13 08:58:28;;;;;;;3.90;3.60;;;4.60;99.90;;;;;;5134136;27;20050;-72
2024/01/13 09:00:54;;;;;;;5.45;2.83;;;4.60;99.90;;;;;;5151005;27;20347;-72
2024/01/13 09:03:21;;;;;;;2.38;1.98;;;4.50;99.90;;;;;;5135856;27;20050;-69
2024/01/13 09:05:47;;;;;;;;;;;;;;;;;;5147277;27;20118;-70
2024/01/13 09:08:13;;;;;;;3.35;3.05;;;4.60;99.90;;;;;;5131826;27;20456;-72
2024/01/13 09:10:39;;;;;;;6.55;3.65;;;4.80;99.90;;;;;;5129345;27;20137;-70
2024/01/13 09:13:05;;;;;;;2.20;1.98;;;4.60;99.90;;;;;;5150274;27;20121;-70
2024/01/13 09:15:31;;;;;;;5.15;2.42;;;4.70;99.90;;;;;;5131061;27;20043;-70
2024/01/13 09:17:57;;;;;;;1.55;1.45;;;4.80;99.90;;;;;;5131030;27;20049;-71
2024/01/13 09:20:23;;;;;;;2.58;1.73;;;4.70;99.90;;;;;;5151004;27;20047;-71
2024/01/13 09:22:49;;;;;;;2.17;1.77;;;4.70;99.90;;;;;;5132164;27;20039;-71
2024/01/13 09:25:15;;;;;;;1.67;1.58;;;4.50;99.90;;;;;;5153479;27;20095;-71
2024/01/13 09:27:41;;;;;;;4.88;1.98;;;4.90;99.90;;;;;;5134812;27;20046;-70
2024/01/13 09:30:07;;;;;;;3.28;1.85;;;4.80;99.90;;;;;;5155489;27;20042;-71
2024/01/13 09:32:32;;;;;;;1.95;1.85;;;4.60;99.90;;;;;;5154231;27;20085;-70
2024/01/13 09:34:58;;;;;;;1.27;1.17;;;5.10;99.90;;;;;;5155262;27;20074;-71
2024/01/13 09:37:24;;;;;;;4.63;2.28;;;4.80;99.90;;;;;;5154537;27;20043;-71
2024/01/13 09:39:49;;;;;;;2.05;1.88;;;4.80;99.90;;;;;;5154329;27;20039;-72
2024/01/13 09:42:23;;;;;;;2.92;1.95;;;4.80;99.90;;;;;;5124712;27;20039;-72
2024/01/13 09:44:49;;;;;;;4.28;1.20;;;4.80;99.90;;;;;;5154715;27;20058;-72
2024/01/13 09:47:15;;;;;;;4.10;2.30;;;4.80;99.90;;;;;;5126010;27;20082;-71
2024/01/13 09:49:41;;;;;;;3.17;1.98;;;5.30;99.90;;;;;;5155135;27;20105;-72
2024/01/13 09:52:06;;;;;;;2.38;1.77;;;4.70;99.90;;;;;;5150272;27;20047;-72
2024/01/13 09:54:32;;;;;;;1.48;1.20;;;4.80;99.90;;;;;;5154133;27;20051;-70
2024/01/13 09:56:58;;;;;;;1.90;1.80;;;5.10;99.90;;;;;;5129232;27;20076;-72
2024/01/13 09:59:31;;;;;;;0.40;0.40;;;;;;;;;;5154793;27;20046;-70
2024/01/13 10:01:56;;;;;;;1.48;0.88;;;5.10;99.90;;;;;;5129582;27;20046;-70
2024/01/13 10:04:22;;;;;;;2.30;1.92;;;5.40;99.90;;;;;;5154658;27;20099;-71
2024/01/13 10:06:49;;;;;;;1.33;1.23;;;;;;;;;;5151077;27;20046;-72
2024/01/13 10:09:15;;;;;;;1.05;1.05;;;5.00;99.90;;;;;;5135878;27;20050;-71
2024/01/13 10:11:40;;;;;;;5.65;1.58;;;5.20;99.90;;;;;;5154211;27;20486;-72
2024/01/13 10:14:08;;;;;;;0.30;0.30;;;5.10;99.90;;;;;;5154413;27;20565;-72
2024/01/13 10:16:34;;;;;;;0.50;0.50;;;5.20;99.90;;;;;;5154524;27;20039;-72
2024/01/13 10:19:02;;;;;;;2.65;1.17;;;5.40;99.90;;;;;;5154395;27;20053;-72
2024/01/13 10:21:28;;;;;;;2.50;1.67;;;5.40;99.90;;;;;;5154225;27;20121;-72
2024/01/13 10:23:55;;;;;;;0.63;0.63;;;5.20;99.90;;;;;;5154648;27;20500;-72
2024/01/13 10:26:23;;;;;;;0.40;0.40;;;5.20;99.90;;;;;;5154306;27;20046;-72
2024/01/13 10:28:50;;;;;;;0.93;0.88;;;5.40;99.90;;;;;;5154359;27;20042;-71
2024/01/13 10:31:18;;;;;;;0.35;0.35;;;5.60;99.90;;;;;;5153940;27;20051;-70
2024/01/13 10:33:48;;;;;;;0.25;0.25;;;5.10;99.90;;;;;;5135774;27;20390;-70
2024/01/13 10:36:24;;;;;;;0.20;0.20;;;5.50;99.90;;;;;;5135825;27;20038;-70
2024/01/13 10:38:55;;;;;;;1.00;0.60;;;5.50;99.90;;;;;;5135878;27;20084;-71
2024/01/13 10:41:26;;;;;;;0.25;0.25;;;5.20;99.90;;;;;;5135835;27;20043;-70
2024/01/13 10:43:54;;;;;;;0.20;0.20;;;5.30;99.90;;;;;;5135446;27;20054;-72
2024/01/13 10:46:25;;;;;;;3.15;0.55;;;5.40;99.90;;;;;;5135808;27;20108;-71
2024/01/13 10:48:59;;;;;;;1.77;0.73;;;5.50;99.90;;;;;;5135079;27;20083;-71
2024/01/13 10:51:35;;;;;;;0.28;0.28;;;5.20;99.90;;;;;;5135790;27;20088;-72
2024/01/13 10:54:02;;;;;;;0.30;0.30;;;5.50;99.90;;;;;;5135103;27;20051;-71
2024/01/13 10:56:29;;;;;;;0.20;0.20;;;5.30;99.90;;;;;;5135546;27;20055;-72
2024/01/13 10:58:57;;;;;;;0.50;0.50;;;5.50;99.90;;;;;;5134886;27;20050;-71
2024/01/13 11:01:26;;;;;;;0.40;0.40;;;5.60;99.90;;;;;;5122222;27;20129;-71
2024/01/13 11:03:53;;;;;;;0.30;0.30;;;5.30;99.90;;;;;;5134869;27;20054;-71
2024/01/13 11:06:21;;;;;;;1.60;0.77;;;5.60;99.90;;;;;;5135216;27;20129;-71
2024/01/13 11:08:47;;;;;;;0.35;0.35;;;5.80;99.90;;;;;;5131603;27;20047;-72
2024/01/13 11:11:19;;;;;;;0.45;0.45;;;5.60;99.90;;;;;;5128189;27;20129;-72
2024/01/13 11:13:49;;;;;;;0.30;0.30;;;5.60;99.90;;;;;;5119716;27;20490;-70
2024/01/13 11:16:19;;;;;;;0.20;0.20;;;5.70;99.90;;;;;;5123492;27;20047;-72
2024/01/13 11:18:51;;;;;;;2.65;1.13;;;5.60;99.90;;;;;;5143280;27;20118;-69
2024/01/13 11:21:17;;;;;;;4.95;0.95;;;5.70;99.90;;;;;;5120290;27;20069;-70
2024/01/13 11:23:49;;;;;;;0.25;0.25;;;5.80;99.90;;;;;;5133232;27;20056;-70
2024/01/13 11:26:18;;;;;;;0.60;0.60;;;5.90;99.90;;;;;;5142487;27;20050;-70
2024/01/13 11:28:51;;;;;;;0.20;0.20;;;5.60;99.90;;;;;;5153237;27;20525;-70
2024/01/13 11:31:36;;;;;;;0.20;0.20;;;5.80;99.90;;;;;;5123568;27;20376;-70
2024/01/13 11:34:03;;;;;;;4.50;0.57;;;5.90;99.90;;;;;;5134600;27;20054;-71
2024/01/13 11:36:33;;;;;;;0.47;0.47;;;5.90;99.90;;;;;;5126470;27;20055;-70
2024/01/13 11:39:03;;;;;;;0.20;0.20;;;6.10;99.90;;;;;;5151700;27;20054;-70
2024/01/13 11:41:50;;;;;;;0.50;0.50;;;5.90;99.90;;;;;;5127456;27;20046;-71
2024/01/13 11:44:23;;;;;;;2.03;1.30;;;;;;;;;;5152460;27;20083;-70
2024/01/13 11:46:58;;;;;;;0.40;0.40;;;5.80;99.90;;;;;;5128778;27;20042;-70
2024/01/13 11:49:38;;;;;;;0.20;0.20;;;5.90;99.90;;;;;;5139974;27;20043;-69
2024/01/13 11:52:09;;;;;;;0.20;0.20;;;6.00;99.90;;;;;;5129516;27;20058;-70
2024/01/13 11:54:36;;;;;;;0.43;0.43;;;5.90;99.90;;;;;;5152604;27;20047;-68
2024/01/13 11:57:12;;;;;;;0.40;0.40;;;6.20;99.90;;;;;;5149410;27;20176;-70
2024/01/13 11:59:39;;;;;;;0.45;0.45;;;5.90;99.90;;;;;;5151916;27;20053;-71
2024/01/13 12:02:06;;;;;;;10.05;1.25;;;6.10;99.90;;;;;;5149986;27;20390;-69
2024/01/13 12:04:34;;;;;;;0.30;0.30;;;6.30;99.90;;;;;;5152458;27;20050;-69
2024/01/13 12:07:00;;;;;;;0.20;0.20;;;5.90;99.90;;;;;;5132503;27;20055;-70
2024/01/13 12:09:27;;;;;;;;;;;6.20;99.90;;;;;;5133861;27;20155;-69
2024/01/13 12:12:02;;;;;;;0.20;0.20;;;6.20;99.90;;;;;;5133536;27;19934;-70
2024/01/13 12:14:30;;;;;;;0.20;0.20;;;6.20;99.90;;;;;;5151055;27;20516;-71
2024/01/13 12:16:57;;;;;;;0.38;0.38;;;6.00;99.90;;;;;;5130726;27;20474;-69
2024/01/13 12:19:29;;;;;;;0.20;0.20;;;6.30;99.90;;;;;;5131011;27;20050;-70
2024/01/13 12:21:55;;;;;;;0.20;0.20;;;6.30;99.90;;;;;;5137122;27;20491;-71
2024/01/13 12:24:28;;;;;;;0.20;0.20;;;6.40;99.90;;;;;;5152188;27;20049;-70
2024/01/13 12:26:55;;;;;;;0.20;0.20;;;6.50;99.90;;;;;;5150724;27;20050;-70
2024/01/13 12:29:24;;;;;;;0.20;0.20;;;6.40;99.90;;;;;;5116987;27;20595;-70
2024/01/13 12:31:50;;;;;;;0.30;0.30;;;6.60;99.90;;;;;;5133797;27;20121;-70
2024/01/13 12:34:18;;;;;;;0.28;0.28;;;6.20;99.90;;;;;;5137716;27;20046;-70
2024/01/13 12:36:44;;;;;;;0.20;0.20;;;6.90;99.90;;;;;;5155837;27;20042;-71
2024/01/13 12:39:12;;;;;;;0.20;0.20;;;6.70;99.90;;;;;;5155946;27;20042;-70
2024/01/13 12:41:38;;;;;;;0.30;0.30;;;6.00;99.90;;;;;;5156190;27;20047;-69
2024/01/13 12:44:05;;;;;;;0.22;0.22;;;7.00;99.90;;;;;;5137374;27;20085;-71
2024/01/13 12:46:37;;;;;;;0.30;0.30;;;6.60;99.90;;;;;;5137318;27;20054;-71
2024/01/13 12:49:16;;;;;;;0.52;0.52;;;6.50;99.90;;;;;;5137568;27;20121;-71
2024/01/13 12:51:42;;;;;;;0.40;0.40;;;6.70;99.90;;;;;;5154593;27;20046;-69
2024/01/13 12:54:09;;;;;;;0.50;0.50;;;6.40;99.90;;;;;;5155599;27;20042;-70
2024/01/13 12:56:35;;;;;;;0.90;0.90;;;6.80;99.90;;;;;;5154859;27;20130;-72
2024/01/13 12:59:01;;;;;;;0.40;0.40;;;6.60;99.90;;;;;;5155579;27;20075;-73
2024/01/13 13:01:27;;;;;;;;;;;6.90;99.90;;;;;;5142601;27;20043;-71
2024/01/13 13:03:54;;;;;;;0.45;0.45;;;7.00;99.90;;;;;;5119134;27;19926;-71
2024/01/13 13:06:21;;;;;;;0.32;0.32;;;6.90;99.90;;;;;;5137249;27;20047;-71
2024/01/13 13:08:46;;;;;;;0.30;0.30;;;7.30;99.90;;;;;;5141820;27;20089;-72
2024/01/13 13:11:14;;;;;;;0.32;0.32;;;7.30;99.90;;;;;;5155373;27;20086;-72